« Back
NWS Peachtree City, Ga » Text Product » AHN Terminal Aerodrome Forecast


Printer-friendly Version
Current Version              Previous Versions:   1  2  3  4  5  6  7  8  9  

Terminal Aerodrome Forecast

731
FTUS42 KFFC 012320
TAFAHN
TAF
KAHN 012320Z 0200/0224 08006KT P6SM FEW050
     FM020600 09007KT P6SM OVC015
     FM021000 08007KT 5SM -DZ OVC007
     FM022000 09008KT P6SM OVC015
     FM022300 10009KT P6SM BKN025=

USA.gov is the U.S. government's official web portal to all federal, state and local government web resources and services.